Costa Luminosa — ICGU — position and weather

sailwx.info

Track history (hours):
 
Tides and Currents Weather Stations Pressure Air Temp Water Temp Dewpoint Dewpoint Depression Visibility Wind Speed Wind Dir Waves Ship Positions

Costa Luminosa

Last reported at 2014-Oct-01 07:32 UTC. Time now 2014-Oct-01 08:20 UTC.
Position N 44°19' E 008°29'.

Length 294 m; draft 8.1 m.

Type: Passenger vessel. MMSI: 247257900.

Date/timePositionNaut miles runAvg speedWind from/ knotsBaromVisibWave heightAir tempDewpointWater temp
2014-Oct-01 07:32N 44°19' E 008°29'0 0.0
2014-Oct-01 06:32N 44°19' E 008°29'5 4.9
2014-Oct-01 05:31N 44°14' E 008°31'1212.4
2014-Oct-01 04:32N 44°03' E 008°22'1313.1
2014-Oct-01 03:33N 43°53' E 008°12'2814.0
2014-Oct-01 01:33N 43°35' E 007°43'1514.3
2014-Oct-01 00:33N 43°26' E 007°27'1414.4
2014-Sep-30 23:33N 43°17' E 007°12'1414.4
2014-Sep-30 22:34N 43°08' E 006°56'1414.4
2014-Sep-30 21:33N 42°59' E 006°41'1313.3
2014-Sep-30 20:33N 42°56' E 006°23'1413.7
2014-Sep-30 19:33N 42°57' E 006°04'1413.9
2014-Sep-30 18:33N 43°01' E 005°46'2713.5
2014-Sep-30 16:33N 43°16' E 005°15'6 0.8
2014-Sep-30 09:13N 43°21' E 005°19'5 7.8
2014-Sep-30 08:33N 43°18' E 005°14'1616.5
2014-Sep-30 07:33N 43°04' E 005°01'1717.0
2014-Sep-30 06:33N 42°52' E 004°45'1212.0
2014-Sep-30 05:33N 42°44' E 004°33'11813.0
2014-Sep-29 20:28N 41°26' E 002°34'1212.6
2014-Sep-29 19:33N 41°20' E 002°21'8 8.3
2014-Sep-29 18:33N 41°20' E 002°10'2 1.5
2014-Sep-29 17:30N 41°21' E 002°11'0 0.0
2014-Sep-29 16:30N 41°21' E 002°11'0 0.0
2014-Sep-29 15:30N 41°21' E 002°11'0 0.0
2014-Sep-29 14:30N 41°21' E 002°11'0 0.0
2014-Sep-29 13:30N 41°21' E 002°11'0 0.0
2014-Sep-29 12:30N 41°21' E 002°11'0 0.0
2014-Sep-29 11:30N 41°21' E 002°11'6 6.4
2014-Sep-29 10:33N 41°16' E 002°13'1818.2
2014-Sep-29 09:33N 41°23' E 002°36'1616.2
2014-Sep-29 08:34N 41°30' E 002°54'1616.2
2014-Sep-29 07:33N 41°38' E 003°14'1515.4
2014-Sep-29 06:33N 41°45' E 003°32'9315.5
2014-Sep-29 00:33N 42°28' E 005°23'1916.2
2014-Sep-28 23:25N 42°37' E 005°45'1518.0
2014-Sep-28 22:34N 42°44' E 006°04'2020.0
2014-Sep-28 21:33N 42°54' E 006°28'2020.1
2014-Sep-28 20:34N 43°05' E 006°51'2019.6
2014-Sep-28 19:34N 43°17' E 007°12'2019.4
2014-Sep-28 18:33N 43°30' E 007°32'1919.3
2014-Sep-28 17:33N 43°42' E 007°53'1919.0
2014-Sep-28 16:33N 43°54' E 008°13'1818.4
2014-Sep-28 15:33N 44°09' E 008°28'10 2.4
2014-Sep-28 11:32N 44°19' E 008°30'0 0.0
2014-Sep-28 10:26N 44°19' E 008°30'0 0.0
2014-Sep-28 09:26N 44°19' E 008°30'0 0.0
2014-Sep-28 08:23N 44°19' E 008°30'0 0.0
2014-Sep-28 07:29N 44°19' E 008°30'0 0.0
2014-Sep-28 06:33N 44°19' E 008°30'9 9.1
2014-Sep-28 05:34N 44°10' E 008°28'1413.9
2014-Sep-28 04:33N 43°57' E 008°19'1312.6
2014-Sep-28 03:33N 43°48' E 008°07'1212.5
2014-Sep-28 02:33N 43°40' E 007°54'1312.5
2014-Sep-28 01:33N 43°32' E 007°40'1515.1
2014-Sep-28 00:33N 43°23' E 007°24'1515.4
2014-Sep-27 23:33N 43°14' E 007°07'1515.2
2014-Sep-27 22:33N 43°05' E 006°50'1515.1
2014-Sep-27 21:33N 42°56' E 006°33'1515.2
2014-Sep-27 20:33N 42°56' E 006°13'1515.2
2014-Sep-27 19:33N 42°60' E 005°52'1615.7
2014-Sep-27 18:33N 43°04' E 005°32'1615.5
2014-Sep-27 17:33N 43°14' E 005°15'7 2.2
2014-Sep-27 14:17N 43°21' E 005°20'0 0.0
2014-Sep-27 11:23N 43°21' E 005°20'0 0.0
2014-Sep-27 09:17N 43°21' E 005°20'0 0.0
2014-Sep-27 07:33N 43°21' E 005°20'1 0.8
2014-Sep-27 06:33N 43°21' E 005°19'1211.8
2014-Sep-27 05:33N 43°11' E 005°10'1818.2
2014-Sep-27 04:33N 42°56' E 004°57'1818.1
2014-Sep-27 03:33N 42°40' E 004°44'1918.5
2014-Sep-27 02:33N 42°24' E 004°31'1918.9
2014-Sep-27 01:33N 42°08' E 004°18'1918.9
2014-Sep-27 00:33N 41°52' E 004°05'4519.6
2014-Sep-26 22:14N 41°14' E 003°33'3219.1
2014-Sep-26 20:32N 40°46' E 003°10'1919.2
2014-Sep-26 19:33N 40°30' E 002°57'1919.4
2014-Sep-26 18:33N 40°14' E 002°43'1414.2
2014-Sep-26 17:33N 40°02' E 002°32'1818.3
2014-Sep-26 16:33N 39°47' E 002°19'1918.6
2014-Sep-26 15:33N 39°31' E 002°07'2019.8
2014-Sep-26 14:33N 39°14' E 001°54'1919.5
2014-Sep-26 13:33N 38°58' E 001°39'10 0.9
2014-Sep-26 02:13N 38°54' E 001°27'0 0.2
2014-Sep-26 01:31N 38°54' E 001°27'0 0.0
2014-Sep-26 00:31N 38°54' E 001°27'0 0.0
2014-Sep-25 23:31N 38°54' E 001°27'0 0.0
2014-Sep-25 22:31N 38°54' E 001°27'0 0.0
2014-Sep-25 21:31N 38°54' E 001°27'0 0.0
2014-Sep-25 20:31N 38°54' E 001°27'0 0.0
2014-Sep-25 19:31N 38°54' E 001°27'0 0.0
2014-Sep-25 18:31N 38°54' E 001°27'0 0.0
2014-Sep-25 17:19N 38°54' E 001°27'0 0.0
2014-Sep-25 16:19N 38°54' E 001°27'0 0.0
2014-Sep-25 15:19N 38°54' E 001°27'0 0.0
2014-Sep-25 14:31N 38°54' E 001°27'0 0.0
2014-Sep-25 13:31N 38°54' E 001°27'0 0.0
2014-Sep-25 12:19N 38°54' E 001°27'0 0.0
2014-Sep-25 11:07N 38°54' E 001°27'0 0.0
2014-Sep-25 10:13N 38°54' E 001°27'0 0.0
2014-Sep-25 09:31N 38°54' E 001°27'0 0.0
2014-Sep-25 08:31N 38°54' E 001°27'0 0.0
2014-Sep-25 06:30N 38°54' E 001°27'8 7.1
2014-Sep-25 05:21N 38°57' E 001°37'1012.2
2014-Sep-25 04:33N 39°06' E 001°43'1212.3
2014-Sep-25 03:33N 39°18' E 001°46'1212.2
2014-Sep-25 02:33N 39°30' E 001°48'1212.0
2014-Sep-25 01:33N 39°42' E 001°50'1211.9
2014-Sep-25 00:33N 39°54' E 001°52'1212.4
2014-Sep-24 23:33N 40°06' E 001°52'1212.3
2014-Sep-24 22:33N 40°18' E 001°54'1211.8
2014-Sep-24 21:33N 40°30' E 001°56'1211.9
2014-Sep-24 20:33N 40°42' E 001°59'1212.1
2014-Sep-24 19:33N 40°53' E 002°05'1212.5
2014-Sep-24 18:33N 41°05' E 002°08'1212.3
2014-Sep-24 17:33N 41°17' E 002°10'4 2.7
2014-Sep-24 16:05N 41°21' E 002°11'0 0.0
2014-Sep-24 15:17N 41°21' E 002°11'6 1.2
2014-Sep-24 10:21N 41°16' E 002°13'1214.4
2014-Sep-24 09:32N 41°20' E 002°27'1615.7
2014-Sep-24 08:32N 41°27' E 002°46'1816.9
2014-Sep-24 07:28N 41°35' E 003°07'1516.3
2014-Sep-24 06:33N 41°42' E 003°25'1716.4
2014-Sep-24 05:32N 41°50' E 003°45'1616.1
2014-Sep-24 04:33N 41°58' E 004°04'2117.4
2014-Sep-24 03:22N 42°07' E 004°28'1518.1
2014-Sep-24 02:33N 42°14' E 004°46'1818.4
2014-Sep-24 01:34N 42°22' E 005°08'2318.4
2014-Sep-24 00:20N 42°33' E 005°35'1518.9
2014-Sep-23 23:33N 42°40' E 005°52'1919.4
2014-Sep-23 22:33N 42°50' E 006°14'1716.5
2014-Sep-23 21:33N 43°04' E 006°26'1918.7
2014-Sep-23 20:33N 43°08' E 006°52'1918.8
2014-Sep-23 19:32N 43°18' E 007°14'1818.9
2014-Sep-23 18:33N 43°30' E 007°34'4318.9
2014-Sep-23 16:16N 43°59' E 008°18'1318.5
2014-Sep-23 15:33N 44°10' E 008°28'9 8.4
2014-Sep-23 14:32N 44°19' E 008°29'0 0.0
2014-Sep-23 13:32N 44°19' E 008°29'0 0.0
2014-Sep-23 12:32N 44°19' E 008°29'0 0.0
2014-Sep-23 11:32N 44°19' E 008°29'0 0.0
2014-Sep-23 10:32N 44°19' E 008°29'0 0.0
2014-Sep-23 09:29N 44°19' E 008°29'0 0.0
2014-Sep-23 08:29N 44°19' E 008°29'0 0.0
2014-Sep-23 07:29N 44°19' E 008°29'0 0.0
2014-Sep-23 06:33N 44°19' E 008°29'6 5.8
2014-Sep-23 05:33N 44°13' E 008°32'1414.3
2014-Sep-23 04:34N 44°02' E 008°21'1212.1
2014-Sep-23 03:33N 43°51' E 008°12'1211.8
2014-Sep-23 02:33N 43°44' E 007°59'1211.8
2014-Sep-23 01:33N 43°37' E 007°46'1312.4
2014-Sep-23 00:33N 43°29' E 007°33'1312.6
2014-Sep-22 23:33N 43°21' E 007°19'1414.4
2014-Sep-22 22:33N 43°12' E 007°04'1515.1
2014-Sep-22 21:33N 43°03' E 006°47'1414.4
2014-Sep-22 20:33N 42°56' E 006°30'1515.2
2014-Sep-22 19:33N 42°56' E 006°09'1615.8
2014-Sep-22 18:33N 43°01' E 005°49'2416.3
2014-Sep-22 17:03N 43°11' E 005°18'714.0
2014-Sep-22 16:33N 43°18' E 005°16'4 0.5
2014-Sep-22 09:09N 43°21' E 005°20'4 7.1
2014-Sep-22 08:33N 43°19' E 005°15'1514.6
2014-Sep-22 07:33N 43°06' E 005°04'1716.7
2014-Sep-22 06:33N 42°55' E 004°48'1616.4
2014-Sep-22 05:33N 42°43' E 004°32'1513.0
2014-Sep-22 04:25N 42°33' E 004°18'1112.2
2014-Sep-22 03:30N 42°25' E 004°07'1212.6
2014-Sep-22 02:33N 42°16' E 003°56'1313.0
2014-Sep-22 01:31N 42°07' E 003°43'1312.8
2014-Sep-22 00:30N 41°57' E 003°30'1212.8
2014-Sep-21 23:34N 41°49' E 003°19'1312.8
2014-Sep-21 22:33N 41°41' E 003°06'1312.8
2014-Sep-21 21:33N 41°35' E 002°51'1313.2
2014-Sep-21 20:33N 41°27' E 002°36'1313.0
2014-Sep-21 19:32N 41°20' E 002°22'9 8.9
2014-Sep-21 18:33N 41°19' E 002°10'2 1.9
2014-Sep-21 17:26N 41°21' E 002°11'0 0.0
2014-Sep-21 16:29N 41°21' E 002°11'0 0.0
2014-Sep-21 15:26N 41°21' E 002°11'0 0.0
2014-Sep-21 14:32N 41°21' E 002°11'0 0.0
2014-Sep-21 12:32N 41°21' E 002°11'0 0.0
2014-Sep-21 11:26N 41°21' E 002°11'5 5.2
2014-Sep-21 10:33N 41°17' E 002°12'1612.6
2014-Sep-21 09:18N 41°22' E 002°32'1314.7
2014-Sep-21 08:25N 41°28' E 002°47'  
Track history (hours):
 
Tides and Currents Weather Stations Pressure Air Temp Water Temp Dewpoint Dewpoint Depression Visibility Wind Speed Wind Dir Waves Ship Positions

Costa Luminosa

Last reported at 2014-Oct-01 07:32 UTC. Time now 2014-Oct-01 08:20 UTC.
Position N 44°19' E 008°29'.

Length 294 m; draft 8.1 m.

Type: Passenger vessel. MMSI: 247257900.

Date/timePositionNaut miles runAvg speedWind from/ knotsBaromVisibWave heightAir tempDewpointWater temp
2014-Oct-01 07:32N 44°19' E 008°29'0 0.0
2014-Oct-01 06:32N 44°19' E 008°29'5 4.9
2014-Oct-01 05:31N 44°14' E 008°31'1212.4
2014-Oct-01 04:32N 44°03' E 008°22'1313.1
2014-Oct-01 03:33N 43°53' E 008°12'2814.0
2014-Oct-01 01:33N 43°35' E 007°43'1514.3
2014-Oct-01 00:33N 43°26' E 007°27'1414.4
2014-Sep-30 23:33N 43°17' E 007°12'1414.4
2014-Sep-30 22:34N 43°08' E 006°56'1414.4
2014-Sep-30 21:33N 42°59' E 006°41'1313.3
2014-Sep-30 20:33N 42°56' E 006°23'1413.7
2014-Sep-30 19:33N 42°57' E 006°04'1413.9
2014-Sep-30 18:33N 43°01' E 005°46'2713.5
2014-Sep-30 16:33N 43°16' E 005°15'6 0.8
2014-Sep-30 09:13N 43°21' E 005°19'5 7.8
2014-Sep-30 08:33N 43°18' E 005°14'1616.5
2014-Sep-30 07:33N 43°04' E 005°01'1717.0
2014-Sep-30 06:33N 42°52' E 004°45'1212.0
2014-Sep-30 05:33N 42°44' E 004°33'11813.0
2014-Sep-29 20:28N 41°26' E 002°34'1212.6
2014-Sep-29 19:33N 41°20' E 002°21'8 8.3
2014-Sep-29 18:33N 41°20' E 002°10'2 1.5
2014-Sep-29 17:30N 41°21' E 002°11'0 0.0
2014-Sep-29 16:30N 41°21' E 002°11'0 0.0
2014-Sep-29 15:30N 41°21' E 002°11'0 0.0
2014-Sep-29 14:30N 41°21' E 002°11'0 0.0
2014-Sep-29 13:30N 41°21' E 002°11'0 0.0
2014-Sep-29 12:30N 41°21' E 002°11'0 0.0
2014-Sep-29 11:30N 41°21' E 002°11'6 6.4
2014-Sep-29 10:33N 41°16' E 002°13'1818.2
2014-Sep-29 09:33N 41°23' E 002°36'1616.2
2014-Sep-29 08:34N 41°30' E 002°54'1616.2
2014-Sep-29 07:33N 41°38' E 003°14'1515.4
2014-Sep-29 06:33N 41°45' E 003°32'9315.5
2014-Sep-29 00:33N 42°28' E 005°23'1916.2
2014-Sep-28 23:25N 42°37' E 005°45'1518.0
2014-Sep-28 22:34N 42°44' E 006°04'2020.0
2014-Sep-28 21:33N 42°54' E 006°28'2020.1
2014-Sep-28 20:34N 43°05' E 006°51'2019.6
2014-Sep-28 19:34N 43°17' E 007°12'2019.4
2014-Sep-28 18:33N 43°30' E 007°32'1919.3
2014-Sep-28 17:33N 43°42' E 007°53'1919.0
2014-Sep-28 16:33N 43°54' E 008°13'1818.4
2014-Sep-28 15:33N 44°09' E 008°28'10 2.4
2014-Sep-28 11:32N 44°19' E 008°30'0 0.0
2014-Sep-28 10:26N 44°19' E 008°30'0 0.0
2014-Sep-28 09:26N 44°19' E 008°30'0 0.0
2014-Sep-28 08:23N 44°19' E 008°30'0 0.0
2014-Sep-28 07:29N 44°19' E 008°30'0 0.0
2014-Sep-28 06:33N 44°19' E 008°30'9 9.1
2014-Sep-28 05:34N 44°10' E 008°28'1413.9
2014-Sep-28 04:33N 43°57' E 008°19'1312.6
2014-Sep-28 03:33N 43°48' E 008°07'1212.5
2014-Sep-28 02:33N 43°40' E 007°54'1312.5
2014-Sep-28 01:33N 43°32' E 007°40'1515.1
2014-Sep-28 00:33N 43°23' E 007°24'1515.4
2014-Sep-27 23:33N 43°14' E 007°07'1515.2
2014-Sep-27 22:33N 43°05' E 006°50'1515.1
2014-Sep-27 21:33N 42°56' E 006°33'1515.2
2014-Sep-27 20:33N 42°56' E 006°13'1515.2
2014-Sep-27 19:33N 42°60' E 005°52'1615.7
2014-Sep-27 18:33N 43°04' E 005°32'1615.5
2014-Sep-27 17:33N 43°14' E 005°15'7 2.2
2014-Sep-27 14:17N 43°21' E 005°20'0 0.0
2014-Sep-27 11:23N 43°21' E 005°20'0 0.0
2014-Sep-27 09:17N 43°21' E 005°20'0 0.0
2014-Sep-27 07:33N 43°21' E 005°20'1 0.8
2014-Sep-27 06:33N 43°21' E 005°19'1211.8
2014-Sep-27 05:33N 43°11' E 005°10'1818.2
2014-Sep-27 04:33N 42°56' E 004°57'1818.1
2014-Sep-27 03:33N 42°40' E 004°44'1918.5
2014-Sep-27 02:33N 42°24' E 004°31'1918.9
2014-Sep-27 01:33N 42°08' E 004°18'1918.9
2014-Sep-27 00:33N 41°52' E 004°05'4519.6
2014-Sep-26 22:14N 41°14' E 003°33'3219.1
2014-Sep-26 20:32N 40°46' E 003°10'1919.2
2014-Sep-26 19:33N 40°30' E 002°57'1919.4
2014-Sep-26 18:33N 40°14' E 002°43'1414.2
2014-Sep-26 17:33N 40°02' E 002°32'1818.3
2014-Sep-26 16:33N 39°47' E 002°19'1918.6
2014-Sep-26 15:33N 39°31' E 002°07'2019.8
2014-Sep-26 14:33N 39°14' E 001°54'1919.5
2014-Sep-26 13:33N 38°58' E 001°39'10 0.9
2014-Sep-26 02:13N 38°54' E 001°27'0 0.2
2014-Sep-26 01:31N 38°54' E 001°27'0 0.0
2014-Sep-26 00:31N 38°54' E 001°27'0 0.0
2014-Sep-25 23:31N 38°54' E 001°27'0 0.0
2014-Sep-25 22:31N 38°54' E 001°27'0 0.0
2014-Sep-25 21:31N 38°54' E 001°27'0 0.0
2014-Sep-25 20:31N 38°54' E 001°27'0 0.0
2014-Sep-25 19:31N 38°54' E 001°27'0 0.0
2014-Sep-25 18:31N 38°54' E 001°27'0 0.0
2014-Sep-25 17:19N 38°54' E 001°27'0 0.0
2014-Sep-25 16:19N 38°54' E 001°27'0 0.0
2014-Sep-25 15:19N 38°54' E 001°27'0 0.0
2014-Sep-25 14:31N 38°54' E 001°27'0 0.0
2014-Sep-25 13:31N 38°54' E 001°27'0 0.0
2014-Sep-25 12:19N 38°54' E 001°27'0 0.0
2014-Sep-25 11:07N 38°54' E 001°27'0 0.0
2014-Sep-25 10:13N 38°54' E 001°27'0 0.0
2014-Sep-25 09:31N 38°54' E 001°27'0 0.0
2014-Sep-25 08:31N 38°54' E 001°27'0 0.0
2014-Sep-25 06:30N 38°54' E 001°27'8 7.1
2014-Sep-25 05:21N 38°57' E 001°37'1012.2
2014-Sep-25 04:33N 39°06' E 001°43'1212.3
2014-Sep-25 03:33N 39°18' E 001°46'1212.2
2014-Sep-25 02:33N 39°30' E 001°48'1212.0
2014-Sep-25 01:33N 39°42' E 001°50'1211.9
2014-Sep-25 00:33N 39°54' E 001°52'1212.4
2014-Sep-24 23:33N 40°06' E 001°52'1212.3
2014-Sep-24 22:33N 40°18' E 001°54'1211.8
2014-Sep-24 21:33N 40°30' E 001°56'1211.9
2014-Sep-24 20:33N 40°42' E 001°59'1212.1
2014-Sep-24 19:33N 40°53' E 002°05'1212.5
2014-Sep-24 18:33N 41°05' E 002°08'1212.3
2014-Sep-24 17:33N 41°17' E 002°10'4 2.7
2014-Sep-24 16:05N 41°21' E 002°11'0 0.0
2014-Sep-24 15:17N 41°21' E 002°11'6 1.2
2014-Sep-24 10:21N 41°16' E 002°13'1214.4
2014-Sep-24 09:32N 41°20' E 002°27'1615.7
2014-Sep-24 08:32N 41°27' E 002°46'1816.9
2014-Sep-24 07:28N 41°35' E 003°07'1516.3
2014-Sep-24 06:33N 41°42' E 003°25'1716.4
2014-Sep-24 05:32N 41°50' E 003°45'1616.1
2014-Sep-24 04:33N 41°58' E 004°04'2117.4
2014-Sep-24 03:22N 42°07' E 004°28'1518.1
2014-Sep-24 02:33N 42°14' E 004°46'1818.4
2014-Sep-24 01:34N 42°22' E 005°08'2318.4
2014-Sep-24 00:20N 42°33' E 005°35'1518.9
2014-Sep-23 23:33N 42°40' E 005°52'1919.4
2014-Sep-23 22:33N 42°50' E 006°14'1716.5
2014-Sep-23 21:33N 43°04' E 006°26'1918.7
2014-Sep-23 20:33N 43°08' E 006°52'1918.8
2014-Sep-23 19:32N 43°18' E 007°14'1818.9
2014-Sep-23 18:33N 43°30' E 007°34'4318.9
2014-Sep-23 16:16N 43°59' E 008°18'1318.5
2014-Sep-23 15:33N 44°10' E 008°28'9 8.4
2014-Sep-23 14:32N 44°19' E 008°29'0 0.0
2014-Sep-23 13:32N 44°19' E 008°29'0 0.0
2014-Sep-23 12:32N 44°19' E 008°29'0 0.0
2014-Sep-23 11:32N 44°19' E 008°29'0 0.0
2014-Sep-23 10:32N 44°19' E 008°29'0 0.0
2014-Sep-23 09:29N 44°19' E 008°29'0 0.0
2014-Sep-23 08:29N 44°19' E 008°29'0 0.0
2014-Sep-23 07:29N 44°19' E 008°29'0 0.0
2014-Sep-23 06:33N 44°19' E 008°29'6 5.8
2014-Sep-23 05:33N 44°13' E 008°32'1414.3
2014-Sep-23 04:34N 44°02' E 008°21'1212.1
2014-Sep-23 03:33N 43°51' E 008°12'1211.8
2014-Sep-23 02:33N 43°44' E 007°59'1211.8
2014-Sep-23 01:33N 43°37' E 007°46'1312.4
2014-Sep-23 00:33N 43°29' E 007°33'1312.6
2014-Sep-22 23:33N 43°21' E 007°19'1414.4
2014-Sep-22 22:33N 43°12' E 007°04'1515.1
2014-Sep-22 21:33N 43°03' E 006°47'1414.4
2014-Sep-22 20:33N 42°56' E 006°30'1515.2
2014-Sep-22 19:33N 42°56' E 006°09'1615.8
2014-Sep-22 18:33N 43°01' E 005°49'2416.3
2014-Sep-22 17:03N 43°11' E 005°18'714.0
2014-Sep-22 16:33N 43°18' E 005°16'4 0.5
2014-Sep-22 09:09N 43°21' E 005°20'4 7.1
2014-Sep-22 08:33N 43°19' E 005°15'1514.6
2014-Sep-22 07:33N 43°06' E 005°04'1716.7
2014-Sep-22 06:33N 42°55' E 004°48'1616.4
2014-Sep-22 05:33N 42°43' E 004°32'1513.0
2014-Sep-22 04:25N 42°33' E 004°18'1112.2
2014-Sep-22 03:30N 42°25' E 004°07'1212.6
2014-Sep-22 02:33N 42°16' E 003°56'1313.0
2014-Sep-22 01:31N 42°07' E 003°43'1312.8
2014-Sep-22 00:30N 41°57' E 003°30'1212.8
2014-Sep-21 23:34N 41°49' E 003°19'1312.8
2014-Sep-21 22:33N 41°41' E 003°06'1312.8
2014-Sep-21 21:33N 41°35' E 002°51'1313.2
2014-Sep-21 20:33N 41°27' E 002°36'1313.0
2014-Sep-21 19:32N 41°20' E 002°22'9 8.9
2014-Sep-21 18:33N 41°19' E 002°10'2 1.9
2014-Sep-21 17:26N 41°21' E 002°11'0 0.0
2014-Sep-21 16:29N 41°21' E 002°11'0 0.0
2014-Sep-21 15:26N 41°21' E 002°11'0 0.0
2014-Sep-21 14:32N 41°21' E 002°11'0 0.0
2014-Sep-21 12:32N 41°21' E 002°11'0 0.0
2014-Sep-21 11:26N 41°21' E 002°11'5 5.2
2014-Sep-21 10:33N 41°17' E 002°12'1612.6
2014-Sep-21 09:18N 41°22' E 002°32'1314.7
2014-Sep-21 08:25N 41°28' E 002°47'  

Dump ship's entire track history